map of LPT home
LPT - Airport
Location
City:  Lampang, Lampang, Thailand
ICAO:VTCL
IATA:LPT

Details
Type:Airport (Aerodrome, Airfield)
Latitude:1816'15"N (18.270933)
Longitude:9930'15"E (99.504167)
Datum:WGS 1984
Elevation:811 ft (247 m)
Variation:0.88W (WMM2015v2 magnetic declination)
-0.03 annual change
Runways:1
Longest:6465 × 95 ft (1971 × 29 m), paved

Time
Time Zone:UTC+7
Local Time:

Weather
METAR:VTCL 041200Z 00000KT CAVOK 25/17 Q1012 NOSIG
TAF:VTCL 041100Z 0412/0512 16005KT 9999 FEW025

Related Locations
Nearby:
Farthest:SJA: 12036 mi / 19371 km
San Juan de Marcona [San Juan de Marcona Airport], ICA, PE

Find:

   beyond  
but within

Other Information
Maps:
NOTAMs:
Links:
Sources:

  
  • flag of Thailand
  

Sectional Chart

Flight Planning
at skyvector.com

Satellite Image

Google Maps Satellite view

 

Copyright © 2004-2019 Karl L. Swartz. All rights reserved.
The Great Circle Mapper name and logo are trademarks of the Great Circle Mapper.
All other trademarks mentioned herein belong to their respective owners.
Please see credits for attibutions and further copyright information.

  Follow gcmap on Facebook Follow gcmap on Twitter GCmap on LinkedIn

hCard Microformat

Geo Microformat